Latest Weather Observations for Stenhouse Bay

IDS60801

Issued at 9:31 pm CST Saturday 1 August 2015 (issued every 30 minutes, with the page automatically refreshed every 10 minutes)

About weather observations | Map of weather stations | Latest weather observations for SA | Other Formats
Station Details ID: 022049 Name: STENHOUSE BAY Lat: -35.28 Lon: 136.94 Height: 42.0 m
Data from the previous 72 hours. | See also: Recent months at Stenhouse Bay
Date/Time
CST
Temp
°C
App
Temp
°C
Dew
Point
Rel
Hum
%
Delta-T
°C
Wind Press
QNH
hPa
Press
MSL
hPa
Rain
since 9 am
mm
Dir
 
Spd
km/h
Gust
km/h
Spd
kts
Gust
kts
01/09:30pm 10.5 7.2 4.4 66 2.7 SSW 11 17 6 9 1019.0 1019.0 0.0
01/09:00pm 10.6 6.9 4.5 66 2.7 SSW 13 19 7 10 1018.9 1018.9 0.0
01/08:30pm 10.5 6.9 5.1 69 2.4 SSW 13 20 7 11 1018.7 1018.7 0.0
01/08:00pm 10.6 6.6 4.9 68 2.6 SSW 15 19 8 10 1018.4 1018.4 0.0
01/07:30pm 10.7 6.7 5.0 68 2.6 SSW 15 20 8 11 1018.1 1018.1 0.0
01/07:00pm 10.6 7.5 5.4 70 2.4 S 11 17 6 9 1017.8 1017.8 0.0
01/06:30pm 10.5 7.3 5.3 70 2.4 S 11 15 6 8 1017.4 1017.4 0.0
01/06:00pm 10.6 7.2 6.0 73 2.1 SSE 13 20 7 11 1017.1 1017.1 0.0
01/05:30pm 10.7 7.0 6.1 73 2.1 S 15 20 8 11 1016.8 1016.8 0.0
01/05:00pm 10.6 8.4 6.0 73 2.1 SSE 7 11 4 6 1016.9 1016.9 0.0
01/04:30pm 10.6 8.6 6.2 74 2.0 ESE 6 11 3 6 1016.3 1016.3 0.0
01/04:00pm 10.6 8.5 6.0 73 2.1 ESE 6 7 3 4 1016.5 1016.5 0.0
01/03:30pm 10.8 8.7 5.6 70 2.4 SSE 6 9 3 5 1016.6 1016.6 0.0
01/03:00pm 10.8 8.6 6.0 72 2.2 SSE 7 11 4 6 1016.4 1016.4 0.0
01/02:30pm 10.7 7.6 5.5 70 2.4 SE 11 17 6 9 1016.2 1016.2 0.0
01/02:00pm 10.8 8.2 6.0 72 2.2 SE 9 15 5 8 1016.6 1016.6 0.0
01/01:30pm 10.9 7.5 5.9 71 2.3 SSE 13 19 7 10 1017.1 1017.1 0.0
01/01:00pm 11.2 7.0 5.9 70 2.5 ESE 17 24 9 13 1015.3 1015.3 0.0
01/12:58pm 11.2 7.1 6.1 71 2.4 ESE 17 22 9 12 1015.5 1015.5 0.0
01/12:30pm 11.3 9.1 5.4 67 2.7 SSE 6 11 3 6 1017.6 1017.6 0.0
01/12:00pm 11.0 7.8 5.3 68 2.6 S 11 19 6 10 1018.6 1018.6 0.0
01/11:30am 10.9 6.1 5.4 69 2.5 SSE 20 28 11 15 1017.9 1017.9 0.0
01/11:00am 11.1 6.9 5.6 69 2.5 S 17 20 9 11 1018.3 1018.3 0.0
01/10:30am 11.0 6.2 5.5 69 2.5 S 20 24 11 13 1018.4 1018.4 0.0
01/10:00am 11.1 6.1 6.3 72 2.3 S 22 30 12 16 1017.2 1017.2 0.0
01/09:30am 11.3 5.6 6.8 74 2.1 SSE 26 32 14 17 1016.5 1016.5 0.0
01/09:00am 11.2 6.7 6.9 75 2.0 SSE 20 24 11 13 1016.7 1016.7 1.2
01/08:30am 11.3 6.9 7.4 77 1.9 S 20 28 11 15 1016.8 1016.8 1.2
01/08:00am 11.3 5.8 7.6 78 1.8 S 26 32 14 17 1015.8 1015.8 1.2
01/07:30am 11.2 6.2 7.9 80 1.6 S 24 33 13 18 1015.8 1015.8 1.2
01/07:00am 11.3 5.9 8.2 81 1.5 S 26 33 14 18 1016.0 1016.0 1.2
01/06:30am 11.2 5.8 8.2 82 1.5 S 26 33 14 18 1015.4 1015.4 1.2
01/06:00am 11.4 5.5 9.0 85 1.2 S 30 39 16 21 1014.6 1014.6 1.2
01/05:30am 11.3 5.4 8.9 85 1.2 S 30 39 16 21 1014.1 1014.1 1.2
01/05:00am 11.4 3.9 9.3 87 1.1 S 39 48 21 26 1013.9 1013.9 1.2
01/04:30am 11.8 5.3 10.2 90 0.8 S 35 43 19 23 1013.5 1013.5 1.2
01/04:00am 12.3 7.9 10.4 88 1.0 SW 24 37 13 20 1013.0 1013.0 1.2
01/03:30am 12.5 8.0 9.9 84 1.3 SSW 24 35 13 19 1012.7 1012.7 1.2
01/03:00am 12.1 7.0 9.3 83 1.4 SW 26 43 14 23 1012.6 1012.6 1.2
01/02:30am 11.9 8.3 11.7 99 0.1 SW 22 32 12 17 1012.7 1012.7 1.2
01/02:00am 11.8 7.0 11.6 99 0.1 SW 28 41 15 22 1012.6 1012.6 1.0
01/01:30am 13.9 10.1 13.6 98 0.2 NW 26 37 14 20 1011.4 1011.4 0.4
01/01:00am 14.0 8.9 13.1 94 0.5 NW 32 46 17 25 1011.4 1011.4 0.4
01/12:30am 13.9 9.1 12.8 93 0.6 NW 30 43 16 23 1011.7 1011.7 0.4
01/12:00am 13.7 9.6 12.6 93 0.6 NW 26 35 14 19 1011.6 1011.6 0.4
 
Date/Time
CST
Temp
°C
App
Temp
°C
Dew
Point
Rel
Hum
%
Delta-T
°C
Wind Press
QNH
hPa
Press
MSL
hPa
Rain
since 9 am
mm
Dir
 
Spd
km/h
Gust
km/h
Spd
kts
Gust
kts
31/11:30pm 13.4 9.3 12.6 95 0.4 NNW 26 35 14 19 1011.4 1011.4 0.2
31/11:00pm 13.3 9.2 12.7 96 0.3 NW 26 37 14 20 1011.9 1011.9 0.2
31/10:30pm 13.0 8.5 12.7 98 0.2 NW 28 37 15 20 1012.0 1012.0 0.2
31/10:00pm 12.9 8.8 12.6 98 0.2 NW 26 41 14 22 1012.1 1012.1 0.2
31/09:30pm 13.2 8.2 12.3 94 0.5 NNW 30 52 16 28 1012.3 1012.3 0.2
31/09:27pm 13.3 8.4 12.4 94 0.5 NNW 30 52 16 28 1012.3 1012.3 0.2
31/09:00pm 13.7 10.5 11.8 88 1.0 NNW 20 28 11 15 1012.3 1012.3 0.0
31/08:30pm 13.1 10.5 12.0 93 0.6 NNW 17 20 9 11 1012.5 1012.5 0.0
31/08:00pm 12.9 10.3 12.0 94 0.5 N 17 22 9 12 1012.8 1012.8 0.0
31/07:30pm 12.8 10.2 11.9 94 0.5 N 17 22 9 12 1012.9 1012.9 0.0
31/07:00pm 12.8 10.9 11.9 94 0.5 N 13 19 7 10 1013.1 1013.1 0.0
31/06:30pm 12.8 10.5 11.7 93 0.6 N 15 20 8 11 1013.2 1013.2 0.0
31/06:00pm 12.9 10.2 11.6 92 0.7 N 17 20 9 11 1013.1 1013.1 0.0
31/05:30pm 12.9 10.1 11.5 91 0.7 NNW 17 24 9 13 1013.5 1013.5 0.0
31/05:00pm 13.1 9.9 11.3 89 1.0 N 19 28 10 15 1013.4 1013.4 0.0
31/04:30pm 13.4 10.0 11.3 87 1.1 N 20 30 11 16 1013.5 1013.5 0.0
31/04:00pm 14.1 10.9 11.3 83 1.5 N 19 28 10 15 1014.0 1014.0 0.0
31/03:30pm 14.6 10.8 11.0 79 1.9 N 22 32 12 17 1014.0 1014.0 0.0
31/03:00pm 15.3 10.7 11.1 76 2.2 N 26 33 14 18 1014.3 1014.3 0.0
31/02:30pm 14.8 9.6 10.4 75 2.3 NNW 28 37 15 20 1015.0 1015.0 0.0
31/02:00pm 15.0 10.2 8.7 66 3.2 NNW 24 35 13 19 1015.5 1015.5 0.0
31/01:30pm 15.1 10.2 9.9 71 2.7 NNW 26 33 14 18 1016.1 1016.1 0.0
31/01:00pm 15.1 9.8 8.3 64 3.4 NNW 26 35 14 19 1016.6 1016.6 0.0
31/12:30pm 14.9 10.6 7.9 63 3.5 N 20 32 11 17 1017.2 1017.2 0.0
31/12:00pm 14.5 9.3 7.1 61 3.6 N 24 33 13 18 1017.9 1017.9 0.0
31/11:30am 12.9 8.0 6.7 66 3.0 N 22 32 12 17 1018.7 1018.7 0.0
31/11:00am 12.0 7.4 6.3 68 2.7 N 20 33 11 18 1019.1 1019.1 0.0
31/10:30am 11.6 7.6 6.5 71 2.4 N 17 22 9 12 1019.4 1019.4 0.0
31/10:00am 10.6 8.4 6.2 74 2.1 N 7 13 4 7 1019.9 1019.9 0.0
31/09:30am 8.6 5.7 4.6 76 1.8 N 9 13 5 7 1020.2 1020.2 0.0
31/09:00am 8.1 5.0 3.8 74 1.9 N 9 13 5 7 1020.4 1020.4 0.0
31/08:30am 6.3 2.6 2.6 77 1.5 N 11 17 6 9 1020.6 1020.6 0.0
31/08:00am 5.8 2.5 2.3 78 1.4 N 9 13 5 7 1020.8 1020.8 0.0
31/07:30am 5.2 2.2 1.9 79 1.3 NNW 7 11 4 6 1020.8 1020.8 0.0
31/07:00am 6.4 4.0 2.1 74 1.8 N 4 6 2 3 1020.7 1020.7 0.0
31/06:30am 5.8 3.0 1.9 76 1.6 NNW 6 7 3 4 1020.8 1020.8 0.0
31/06:00am 6.0 3.6 1.9 75 1.6 NNW 4 6 2 3 1020.8 1020.8 0.0
31/05:30am 6.4 4.0 2.1 74 1.7 NW 4 6 2 3 1021.0 1021.0 0.0
31/05:00am 6.9 4.6 2.6 74 1.8 NNW 4 6 2 3 1021.0 1021.0 0.0
31/04:30am 6.6 4.7 2.7 76 1.6 NNW 2 4 1 2 1020.9 1020.9 0.0
31/04:00am 8.0 6.1 3.1 71 2.1 E 2 4 1 2 1020.9 1020.9 0.0
31/03:30am 8.7 6.5 3.3 69 2.3 E 4 6 2 3 1021.4 1021.4 0.0
31/03:00am 8.8 6.2 3.4 69 2.3 ESE 6 7 3 4 1021.4 1021.4 0.0
31/02:30am 8.8 6.2 3.2 68 2.4 E 6 6 3 3 1021.7 1021.7 0.0
31/02:00am 8.9 6.6 2.7 65 2.6 ESE 4 6 2 3 1022.0 1022.0 0.0
31/01:30am 9.3 6.1 3.1 65 2.7 SSE 9 13 5 7 1022.0 1022.0 0.0
31/01:00am 9.7 6.5 3.2 64 2.8 SSE 9 15 5 8 1022.4 1022.4 0.0
31/12:30am 10.0 6.5 3.5 64 2.8 SSE 11 17 6 9 1022.8 1022.8 0.0
31/12:00am 10.0 6.9 3.5 64 2.8 S 9 15 5 8 1022.8 1022.8 0.0
 
Date/Time
CST
Temp
°C
App
Temp
°C
Dew
Point
Rel
Hum
%
Delta-T
°C
Wind Press
QNH
hPa
Press
MSL
hPa
Rain
since 9 am
mm
Dir
 
Spd
km/h
Gust
km/h
Spd
kts
Gust
kts
30/11:30pm 10.3 5.9 2.7 59 3.3 SSE 15 20 8 11 1022.8 1022.8 0.0
30/11:00pm 10.5 6.2 3.3 61 3.1 S 15 19 8 10 1022.9 1022.9 0.0
30/10:30pm 10.7 5.8 4.0 63 3.0 S 19 26 10 14 1022.7 1022.7 0.0
30/10:00pm 11.1 6.1 4.8 65 2.9 S 20 28 11 15 1022.6 1022.6 0.0
30/09:30pm 11.3 6.1 5.6 68 2.6 S 22 33 12 18 1022.6 1022.6 0.0
30/09:00pm 11.3 5.6 4.7 64 3.0 S 24 30 13 16 1022.1 1022.1 0.0
30/08:30pm 11.4 5.8 5.5 67 2.7 S 24 32 13 17 1021.9 1021.9 0.0
30/08:00pm 11.5 4.8 3.5 58 3.5 S 28 33 15 18 1021.4 1021.4 0.0
30/07:30pm 11.8 6.0 6.1 68 2.7 S 26 33 14 18 1021.2 1021.2 0.0
30/07:00pm 12.1 6.9 7.4 73 2.3 SSW 24 33 13 18 1020.6 1020.6 0.0
30/06:30pm 12.6 6.5 8.3 75 2.1 SSW 30 39 16 21 1020.0 1020.0 0.0
30/06:00pm 12.9 7.7 8.8 76 2.1 SSW 26 37 14 20 1019.6 1019.6 0.0
30/05:30pm 13.0 7.6 9.6 80 1.7 SSW 28 44 15 24 1019.2 1019.2 0.0
30/05:00pm 13.0 8.5 10.2 83 1.4 SW 24 35 13 19 1019.0 1019.0 0.0
30/04:30pm 12.9 8.2 10.6 86 1.2 SW 26 39 14 21 1018.5 1018.5 0.0
30/04:00pm 13.2 8.5 12.1 93 0.6 SW 28 41 15 22 1017.8 1017.8 0.0
30/03:30pm 13.6 8.6 12.3 92 0.7 WSW 30 48 16 26 1017.4 1017.4 0.0
30/03:00pm 16.1 11.9 12.3 78 2.1 W 26 37 14 20 1017.1 1017.1 0.0
30/02:30pm 16.9 11.9 12.2 74 2.6 W 30 41 16 22 1016.8 1016.8 0.0
30/02:00pm 17.1 13.0 12.6 75 2.5 WSW 26 43 14 23 1016.7 1016.7 0.0
30/01:30pm 16.9 11.5 12.2 74 2.6 W 32 46 17 25 1016.5 1016.5 0.0
30/01:00pm 16.0 12.5 13.3 84 1.5 W 24 41 13 22 1016.6 1016.6 0.0
30/12:30pm 14.4 10.3 12.8 90 0.9 WNW 26 35 14 19 1016.9 1016.9 0.0
30/12:00pm 12.9 7.8 12.0 94 0.5 WNW 30 43 16 23 1017.1 1017.1 0.0
30/11:30am 14.5 8.6 10.3 76 2.2 WNW 32 46 17 25 1017.0 1017.0 0.0
30/11:00am 14.6 7.1 7.9 64 3.3 NW 37 48 20 26 1016.7 1016.7 0.0
30/10:30am 15.1 8.5 7.9 62 3.6 NW 32 44 17 24 1016.8 1016.8 0.0
30/10:00am 14.2 6.3 6.3 59 3.8 NW 37 52 20 28 1016.8 1016.8 0.0
30/09:30am 14.4 7.4 6.7 60 3.7 NW 33 46 18 25 1016.5 1016.5 0.0
30/09:00am 14.1 7.3 6.7 61 3.6 NNW 32 46 17 25 1016.0 1016.0 0.4
30/08:30am 13.7 7.8 7.5 66 3.0 NNW 28 39 15 21 1016.3 1016.3 0.4
30/08:00am 12.9 7.0 7.4 69 2.7 NNW 28 39 15 21 1016.4 1016.4 0.4
30/07:30am 12.1 5.6 6.6 69 2.6 NNW 30 39 16 21 1016.2 1016.2 0.4
30/07:00am 11.8 4.9 6.5 70 2.5 NNW 32 44 17 24 1015.7 1015.7 0.4
30/06:30am 11.0 5.4 8.8 86 1.1 N 28 39 15 21 1015.8 1015.8 0.2
30/06:00am 11.5 6.8 9.1 85 1.2 N 24 35 13 19 1016.1 1016.1 0.0
30/05:30am 12.0 6.9 7.5 74 2.2 N 24 39 13 21 1016.4 1016.4 0.0
30/05:00am 11.3 6.0 6.8 74 2.1 N 24 32 13 17 1016.1 1016.1 0.0
30/04:30am 11.5 6.6 6.8 73 2.2 N 22 33 12 18 1016.2 1016.2 0.0
30/04:00am 12.3 6.6 6.6 68 2.7 N 26 35 14 19 1017.3 1017.3 0.0
30/03:30am 12.4 6.7 6.7 68 2.7 N 26 33 14 18 1018.0 1018.0 0.0
30/03:00am 12.1 6.8 6.6 69 2.6 N 24 32 13 17 1018.5 1018.5 0.0
30/02:30am 12.1 6.7 6.4 68 2.7 N 24 33 13 18 1018.7 1018.7 0.0
30/02:00am 12.2 6.4 6.3 67 2.8 NNW 26 37 14 20 1019.2 1019.2 0.0
30/01:30am 12.0 6.1 5.9 66 2.9 NNW 26 35 14 19 1019.6 1019.6 0.0
30/01:00am 12.1 6.4 6.6 69 2.6 NNW 26 39 14 21 1020.0 1020.0 0.0
30/12:30am 11.9 6.6 6.8 71 2.4 NNW 24 35 13 19 1020.5 1020.5 0.0
30/12:00am 12.1 6.5 7.0 71 2.4 N 26 35 14 19 1020.5 1020.5 0.0
 
Date/Time
CST
Temp
°C
App
Temp
°C
Dew
Point
Rel
Hum
%
Delta-T
°C
Wind Press
QNH
hPa
Press
MSL
hPa
Rain
since 9 am
mm
Dir
 
Spd
km/h
Gust
km/h
Spd
kts
Gust
kts
29/11:30pm 11.7 6.6 7.8 77 1.9 N 24 32 13 17 1020.8 1020.8 0.0
29/11:00pm 11.8 7.2 8.1 78 1.8 N 22 32 12 17 1021.0 1021.0 0.0
29/10:30pm 12.2 7.4 8.7 79 1.7 N 24 32 13 17 1021.5 1021.5 0.0
29/10:00pm 12.1 7.8 7.8 75 2.1 N 20 33 11 18 1021.7 1021.7 0.0

Other Formats:

Comma delimited format used in spreadsheet applications
http://www.bom.gov.au/fwo/IDS60801/IDS60801.95806.axf

JavaScript Object Notation format (JSON) in row-major order
http://www.bom.gov.au/fwo/IDS60801/IDS60801.95806.json